Ana Sayfa
METAR-TAF:

METAR-TAF

Havaalanları :

Amerika Birleşik Devletleri Deniz Harp Okulu

Annapolis, Maryland, Amerika Birleşik Devletleri

Enlem: 38-59-29N, Boylam: 076-29-00W, yükseklik: 2 m

Güncel hava durumu gözlemi

Rapor saat 11:54 UTC de 46 dakika önce yapıldı.
Sakin rüzgar
Sıcaklık 14°C
Nem 67%
Basınç 1025 hPa
Görüş mesafesi: 16.1 km
Açık gökyüzü

METAR: KNAK 161154Z AUTO 00000KT 10SM CLR 14/08 A3028 RMK AO2 SLP255 T01440083 10156 20111 53012 $

Saat: 08:40 (12:40 UTC)


TAF: eksik

4.000'den fazla havaalanı için hava durumu gözlemleri ve tahminleri (METAR ve TAF raporları).

Kullanılabilir istasyonlar harita üzerinde sarı ve kırmızı noktalarla gösterilir.

İstasyonun adını görmek için fareyi noktanın üzerinde gezdirin.

Sonrasında hava gözlem ve tahminlerini görmek için tıklayın.

Haritayı değiştirmek için: yaklaştırmak için siyah artı işaretli yeşil düğmeye ve uzaklaştırmak için de eksi işaretli düğmeye hızla tıklayın; bitişik haritalar için yeşil okları kullanın.


METAR-TAF: